Time;durP1;ratioP1;P1;durP2;ratioP2;P2;SDS_P1;SDS_P2;PMS_P1;PMS_P2;Temp;Humidity;BMP_temperature;BMP_pressure;BME280_temperature;BME280_humidity;BME280_pressure;Samples;Min_cycle;Max_cycle;Signal;HPM_P1;HPM_P2
2021/03/02 00:01:02;;;;;;;33.87;17.70;;;;;;;3.25;nan;102016.44;5025078;28;20485;-75
2021/03/02 00:03:28;;;;;;;24.70;15.63;;;;;;;3.16;nan;102029.03;5025217;28;20458;-74
2021/03/02 00:05:54;;;;;;;26.33;16.48;;;;;;;3.09;nan;102030.16;5024756;28;20486;-74
2021/03/02 00:08:22;;;;;;;23.60;15.67;;;;;;;3.15;nan;102026.44;5024868;28;20216;-74
2021/03/02 00:10:48;;;;;;;24.80;14.90;;;;;;;3.14;nan;102024.69;5024835;28;20466;-74
2021/03/02 00:13:15;;;;;;;28.33;16.93;;;;;;;3.10;nan;102031.00;5025045;28;21085;-74
2021/03/02 00:15:41;;;;;;;29.50;15.57;;;;;;;3.16;nan;102023.75;5024403;28;20463;-75
2021/03/02 00:18:08;;;;;;;28.85;16.85;;;;;;;3.18;nan;102027.19;5024351;28;20486;-74
2021/03/02 00:20:35;;;;;;;23.40;14.70;;;;;;;3.13;nan;102022.97;5025114;28;20243;-74
2021/03/02 00:23:03;;;;;;;27.93;14.50;;;;;;;3.19;nan;102030.69;5024746;28;20458;-74
2021/03/02 00:25:32;;;;;;;25.50;14.23;;;;;;;3.16;nan;102025.50;5023001;28;20479;-74
2021/03/02 00:28:00;;;;;;;28.20;16.50;;;;;;;3.10;nan;102018.63;5024480;28;20447;-74
2021/03/02 00:30:27;;;;;;;32.25;16.58;;;;;;;3.12;nan;102027.38;5023981;28;20474;-74
2021/03/02 00:32:56;;;;;;;24.37;14.80;;;;;;;3.11;nan;102030.09;5023814;28;20200;-74
2021/03/02 00:35:23;;;;;;;23.85;15.20;;;;;;;3.11;nan;102025.66;5022660;28;20454;-74
2021/03/02 00:37:49;;;;;;;26.10;15.60;;;;;;;3.02;nan;102025.94;5025112;28;20585;-74
2021/03/02 00:40:16;;;;;;;23.73;15.35;;;;;;;3.01;nan;102024.22;5024136;28;20240;-74
2021/03/02 00:42:43;;;;;;;26.65;17.30;;;;;;;3.08;nan;102022.25;5024529;28;20224;-75
2021/03/02 00:45:11;;;;;;;23.73;15.50;;;;;;;3.04;nan;102017.97;5022717;28;20255;-74
2021/03/02 00:47:37;;;;;;;25.67;16.40;;;;;;;2.99;nan;102021.63;5024084;28;20215;-74
2021/03/02 00:50:07;;;;;;;29.25;15.65;;;;;;;2.91;nan;102015.72;5024378;28;20477;-74
2021/03/02 00:52:33;;;;;;;27.20;16.30;;;;;;;2.89;nan;102019.31;5023688;28;20291;-74
2021/03/02 00:54:59;;;;;;;30.53;17.80;;;;;;;2.86;nan;102020.28;5023415;28;20231;-74
2021/03/02 00:57:26;;;;;;;28.57;16.00;;;;;;;2.86;nan;102022.06;5023178;28;20543;-74
2021/03/02 00:59:53;;;;;;;29.83;17.13;;;;;;;2.80;nan;102016.06;5024538;28;20546;-74
2021/03/02 01:02:19;;;;;;;27.48;16.58;;;;;;;2.85;nan;102026.47;5023655;28;20504;-74
2021/03/02 01:04:45;;;;;;;27.20;16.73;;;;;;;2.89;nan;102017.53;5023888;28;20235;-74
2021/03/02 01:07:11;;;;;;;31.05;16.30;;;;;;;2.89;nan;102012.25;5023626;28;20513;-74
2021/03/02 01:09:37;;;;;;;33.85;18.45;;;;;;;2.88;nan;102010.50;5024366;28;20239;-75
2021/03/02 01:12:04;;;;;;;28.53;17.40;;;;;;;2.91;nan;102015.72;5023789;28;20274;-75
2021/03/02 01:14:31;;;;;;;34.50;18.73;;;;;;;2.94;nan;102010.34;5023213;28;20457;-74
2021/03/02 01:16:58;;;;;;;33.73;17.37;;;;;;;2.98;nan;102011.09;5022988;28;20242;-75
2021/03/02 01:19:24;;;;;;;30.70;17.90;;;;;;;2.89;nan;102011.41;5024559;28;20477;-75
2021/03/02 01:21:50;;;;;;;30.17;17.37;;;;;;;2.97;nan;102010.25;5023242;28;20259;-74
2021/03/02 01:24:17;;;;;;;29.60;18.50;;;;;;;2.98;nan;102004.03;5023536;28;20490;-74
2021/03/02 01:26:43;;;;;;;35.85;19.83;;;;;;;2.93;nan;102005.09;5022706;28;20502;-74
2021/03/02 01:29:09;;;;;;;25.43;15.93;;;;;;;3.00;nan;102002.22;5023512;28;20215;-75
2021/03/02 01:31:36;;;;;;;28.98;17.45;;;;;;;2.89;nan;102004.34;5023023;28;20474;-74
2021/03/02 01:34:03;;;;;;;31.05;18.77;;;;;;;2.86;nan;102000.94;5023200;28;20243;-75
2021/03/02 01:36:29;;;;;;;29.15;17.17;;;;;;;2.77;nan;101994.16;5022660;28;20263;-75
2021/03/02 01:38:55;;;;;;;26.40;16.98;;;;;;;2.76;nan;101997.69;5023832;28;20247;-75
2021/03/02 01:41:22;;;;;;;29.88;18.15;;;;;;;2.69;nan;101990.88;5022639;28;20242;-75
2021/03/02 01:43:48;;;;;;;28.50;17.33;;;;;;;2.69;nan;101989.13;5023263;28;20246;-75
2021/03/02 01:46:14;;;;;;;29.40;17.02;;;;;;;2.69;nan;101991.75;5022433;28;20259;-74
2021/03/02 01:48:41;;;;;;;28.30;16.80;;;;;;;2.59;nan;101985.88;5023423;28;20246;-76
2021/03/02 01:51:09;;;;;;;31.33;15.63;;;;;;;2.57;nan;101986.81;5022737;28;20243;-75
2021/03/02 01:53:35;;;;;;;34.30;16.27;;;;;;;2.63;nan;101981.38;5022866;28;21051;-75
2021/03/02 01:56:02;;;;;;;33.27;17.00;;;;;;;2.67;nan;101980.34;5022420;28;20270;-75
2021/03/02 01:58:29;;;;;;;29.40;17.50;;;;;;;2.68;nan;101982.09;5022865;28;20465;-75
2021/03/02 02:00:56;;;;;;;31.67;17.60;;;;;;;2.66;nan;101983.03;5022538;28;20240;-74
2021/03/02 02:03:28;;;;;;;29.33;16.13;;;;;;;2.69;nan;101978.56;5022992;28;20543;-74
2021/03/02 02:05:58;;;;;;;29.27;17.42;;;;;;;2.68;nan;101982.09;5021901;28;20538;-75
2021/03/02 02:08:38;;;;;;;29.95;17.40;;;;;;;2.67;nan;101982.13;5023208;28;20271;-75
2021/03/02 02:11:10;;;;;;;29.00;17.45;;;;;;;2.67;nan;101964.50;5021840;28;20239;-75
2021/03/02 02:13:39;;;;;;;27.40;16.92;;;;;;;2.66;nan;101980.41;5023149;28;20215;-75
2021/03/02 02:16:09;;;;;;;32.83;18.38;;;;;;;2.66;nan;101975.13;5022040;28;20336;-75
2021/03/02 02:18:36;;;;;;;31.67;16.40;;;;;;;2.77;nan;101981.81;5023318;28;20705;-75
2021/03/02 02:21:15;;;;;;;30.45;16.95;;;;;;;2.77;nan;101978.31;5022112;28;20514;-75
2021/03/02 02:23:47;;;;;;;27.60;16.17;;;;;;;2.87;nan;101978.88;5022584;28;20231;-75
2021/03/02 02:26:38;;;;;;;30.27;17.42;;;;;;;2.76;nan;101980.09;5021873;28;21125;-75
2021/03/02 02:29:05;;;;;;;30.02;15.85;;;;;;;2.61;nan;101972.63;5023013;28;20191;-74
2021/03/02 02:31:31;;;;;;;28.73;16.98;;;;;;;2.59;nan;101970.03;5021514;28;20232;-75
2021/03/02 02:33:58;;;;;;;28.60;17.52;;;;;;;2.58;nan;101970.94;5022500;28;20250;-75
2021/03/02 02:36:24;;;;;;;35.35;17.60;;;;;;;2.51;nan;101968.53;5021553;28;20658;-75
2021/03/02 02:38:52;;;;;;;27.50;17.90;;;;;;;2.40;nan;101971.50;5022480;28;20246;-75
2021/03/02 02:41:19;;;;;;;34.80;17.98;;;;;;;2.40;nan;101966.22;5022243;28;20325;-75
2021/03/02 02:43:47;;;;;;;29.25;17.48;;;;;;;2.39;nan;101972.41;5022691;28;20250;-75
2021/03/02 02:46:14;;;;;;;33.08;18.40;;;;;;;2.41;nan;101975.88;5021856;28;20303;-75
2021/03/02 02:48:40;;;;;;;29.10;17.63;;;;;;;2.42;nan;101967.91;5002885;28;20648;-75
2021/03/02 02:51:06;;;;;;;29.50;15.73;;;;;;;2.48;nan;101972.13;5011819;28;20287;-75
2021/03/02 02:53:33;;;;;;;29.25;17.23;;;;;;;2.51;nan;101979.09;5022359;28;20350;-75
2021/03/02 02:56:01;;;;;;;28.58;18.25;;;;;;;2.52;nan;101960.59;5021966;28;20739;-75
2021/03/02 02:58:31;;;;;;;32.05;18.90;;;;;;;2.52;nan;101972.91;5022327;28;20214;-75
2021/03/02 03:01:02;;;;;;;32.05;17.92;;;;;;;2.49;nan;101967.72;5021721;28;20294;-75
2021/03/02 03:03:28;;;;;;;29.48;17.80;;;;;;;2.54;nan;101966.66;5022248;28;20200;-75
2021/03/02 03:05:58;;;;;;;34.05;17.73;;;;;;;2.52;nan;101972.91;5021594;28;20239;-75
2021/03/02 03:08:28;;;;;;;39.25;20.15;;;;;;;2.56;nan;101971.91;5022527;28;20275;-75
2021/03/02 03:10:54;;;;;;;29.67;19.27;;;;;;;2.47;nan;101969.56;5021138;28;20287;-75
2021/03/02 03:13:23;;;;;;;30.02;20.15;;;;;;;2.53;nan;101966.72;5022227;28;20234;-75
2021/03/02 03:15:50;;;;;;;29.45;19.27;;;;;;;2.45;nan;101966.97;5021743;28;20286;-75
2021/03/02 03:18:19;;;;;;;30.70;18.33;;;;;;;2.41;nan;101966.19;5023560;28;20561;-75
2021/03/02 03:20:46;;;;;;;39.33;20.70;;;;;;;2.22;nan;101968.50;5025593;28;20295;-75
2021/03/02 03:23:14;;;;;;;36.30;20.75;;;;;;;2.14;nan;101975.78;5025515;28;21046;-75
2021/03/02 03:25:40;;;;;;;31.77;19.38;;;;;;;2.23;nan;101972.84;5025307;28;20306;-75
2021/03/02 03:28:07;;;;;;;30.20;17.45;;;;;;;2.27;nan;101965.72;5026016;28;20191;-75
2021/03/02 03:30:34;;;;;;;36.35;19.90;;;;;;;2.33;nan;101964.69;5024888;28;20291;-75
2021/03/02 03:33:04;;;;;;;34.45;19.10;;;;;;;2.31;nan;101962.09;5025763;28;20223;-75
2021/03/02 03:35:31;;;;;;;34.08;20.60;;;;;;;2.26;nan;101966.63;5024752;28;20583;-75
2021/03/02 03:37:57;;;;;;;30.55;20.25;;;;;;;2.29;nan;101958.59;5025638;28;20258;-75
2021/03/02 03:40:24;;;;;;;27.90;18.83;;;;;;;2.35;nan;101965.50;5025362;28;22054;-75
2021/03/02 03:42:50;;;;;;;35.75;21.35;;;;;;;2.21;nan;101966.75;5026144;28;20204;-75
2021/03/02 03:45:17;;;;;;;36.42;20.80;;;;;;;2.23;nan;101966.72;5024716;28;20310;-75
2021/03/02 03:47:43;;;;;;;32.95;20.90;;;;;;;2.22;nan;101962.34;5025079;28;20279;-75
2021/03/02 03:50:10;;;;;;;31.52;19.85;;;;;;;2.24;nan;101964.03;5025019;28;20239;-75
2021/03/02 03:52:40;;;;;;;30.42;18.95;;;;;;;2.23;nan;101962.31;5025314;28;20232;-75
2021/03/02 03:55:07;;;;;;;34.25;19.40;;;;;;;2.35;nan;101970.78;5024907;28;20219;-75
2021/03/02 03:57:34;;;;;;;35.60;19.90;;;;;;;2.30;nan;101968.28;5025091;28;20228;-75
2021/03/02 04:00:00;;;;;;;29.10;18.38;;;;;;;2.26;nan;101971.91;5025420;28;20283;-75
2021/03/02 04:02:27;;;;;;;33.58;17.83;;;;;;;2.54;nan;101979.88;5024768;28;20255;-75
2021/03/02 04:04:53;;;;;;;30.77;17.37;;;;;;;2.25;nan;101970.19;5025137;28;20300;-75
2021/03/02 04:07:19;;;;;;;36.22;19.63;;;;;;;2.25;nan;101981.59;5024254;28;20557;-74
2021/03/02 04:09:46;;;;;;;32.83;19.13;;;;;;;2.23;nan;101974.63;5024952;28;20208;-75
2021/03/02 04:12:13;;;;;;;38.30;17.00;;;;;;;2.28;nan;101972.72;5024307;28;20231;-75
2021/03/02 04:14:40;;;;;;;28.92;17.48;;;;;;;2.12;nan;101982.88;5025198;28;20237;-75
2021/03/02 04:17:09;;;;;;;34.67;18.95;;;;;;;2.20;nan;101980.00;5024635;28;20270;-75
2021/03/02 04:19:50;;;;;;;28.92;18.85;;;;;;;2.17;nan;101978.34;5025226;28;20246;-75
2021/03/02 04:22:16;;;;;;;31.58;18.30;;;;;;;2.15;nan;101974.84;4982434;28;21039;-75
2021/03/02 04:24:42;;;;;;;27.45;18.67;;;;;;;2.18;nan;101977.41;4983253;28;20499;-75
2021/03/02 04:27:09;;;;;;;36.15;19.90;;;;;;;2.11;nan;101973.22;4982187;28;20296;-74
2021/03/02 04:29:35;;;;;;;34.30;18.80;;;;;;;2.10;nan;101970.63;4983497;28;20496;-75
2021/03/02 04:32:01;;;;;;;43.15;20.63;;;;;;;2.14;nan;101974.91;4982657;28;20229;-75
2021/03/02 04:34:27;;;;;;;41.10;18.70;;;;;;;2.02;nan;101968.22;4983097;28;20811;-75
2021/03/02 04:36:53;;;;;;;33.15;18.13;;;;;;;2.08;nan;101973.28;4982008;28;20260;-75
2021/03/02 04:39:20;;;;;;;41.75;20.40;;;;;;;2.04;nan;101972.53;4983049;28;20249;-75
2021/03/02 04:41:46;;;;;;;32.53;17.88;;;;;;;2.07;nan;101980.34;4982463;28;20267;-75
2021/03/02 04:44:13;;;;;;;37.47;17.85;;;;;;;2.11;nan;101978.50;4982907;28;20319;-75
2021/03/02 04:46:39;;;;;;;42.67;18.42;;;;;;;2.10;nan;101974.16;4981779;28;20248;-75
2021/03/02 04:49:05;;;;;;;39.10;19.20;;;;;;;1.91;nan;101973.78;4982749;28;20765;-75
2021/03/02 04:51:31;;;;;;;38.55;18.40;;;;;;;1.97;nan;101976.25;4982430;28;20291;-75
2021/03/02 04:53:58;;;;;;;36.78;17.60;;;;;;;2.03;nan;101977.84;4982775;28;20213;-75
2021/03/02 04:56:24;;;;;;;32.97;18.27;;;;;;;1.97;nan;101978.88;4981730;28;20249;-75
2021/03/02 04:58:50;;;;;;;38.60;18.63;;;;;;;1.98;nan;101985.91;4991970;28;20218;-75
2021/03/02 05:01:17;;;;;;;27.73;16.50;;;;;;;1.99;nan;101974.41;5023067;28;20247;-75
2021/03/02 05:03:43;;;;;;;33.45;17.02;;;;;;;1.97;nan;101983.28;5023640;28;20200;-75
2021/03/02 05:06:09;;;;;;;32.03;16.92;;;;;;;1.94;nan;101984.22;5021900;28;20259;-75
2021/03/02 05:08:35;;;;;;;32.40;17.35;;;;;;;2.01;nan;101979.66;5023825;28;20243;-75
2021/03/02 05:11:01;;;;;;;27.95;16.45;;;;;;;2.02;nan;101973.47;5016345;28;20223;-75
2021/03/02 05:13:27;;;;;;;30.13;16.40;;;;;;;2.10;nan;101976.78;5017791;28;20204;-75
2021/03/02 05:15:54;;;;;;;26.38;15.77;;;;;;;2.15;nan;101980.13;5020679;28;20235;-75
2021/03/02 05:18:21;;;;;;;32.67;17.38;;;;;;;2.07;nan;101976.84;5022682;28;20242;-75
2021/03/02 05:20:47;;;;;;;32.38;17.33;;;;;;;2.06;nan;101975.13;5022291;28;20243;-75
2021/03/02 05:23:13;;;;;;;33.20;19.08;;;;;;;2.10;nan;101971.50;5021912;28;20302;-75
2021/03/02 05:25:39;;;;;;;26.97;16.77;;;;;;;2.01;nan;101964.69;5021808;28;20269;-75
2021/03/02 05:28:05;;;;;;;32.78;18.88;;;;;;;1.98;nan;101966.53;5022448;28;20486;-75
2021/03/02 05:30:31;;;;;;;30.42;17.15;;;;;;;2.00;nan;101967.41;5020762;28;20250;-76
2021/03/02 05:32:57;;;;;;;31.23;17.58;;;;;;;2.04;nan;101964.59;5022250;28;20235;-75
2021/03/02 05:35:24;;;;;;;30.80;19.27;;;;;;;1.96;nan;101961.34;5021881;28;20234;-75
2021/03/02 05:37:50;;;;;;;32.83;18.02;;;;;;;2.04;nan;101963.75;5021449;28;20662;-75
2021/03/02 05:40:17;;;;;;;33.47;17.55;;;;;;;2.06;nan;101967.19;5022560;28;20195;-75
2021/03/02 05:42:43;;;;;;;35.92;18.73;;;;;;;2.03;nan;101968.16;5021646;28;20266;-75
2021/03/02 05:45:10;;;;;;;41.47;21.98;;;;;;;2.01;nan;101963.81;5018825;28;20291;-75
2021/03/02 05:47:38;;;;;;;30.63;18.92;;;;;;;1.96;nan;101961.34;5018207;28;20302;-75
2021/03/02 05:50:06;;;;;;;33.38;19.73;;;;;;;1.86;nan;101965.13;5022475;28;20246;-75
2021/03/02 05:52:33;;;;;;;37.35;20.75;;;;;;;1.73;nan;101966.38;5021943;28;20219;-76
2021/03/02 05:55:00;;;;;;;39.80;20.92;;;;;;;1.75;nan;101964.56;5021548;28;20758;-75
2021/03/02 05:57:26;;;;;;;33.50;20.23;;;;;;;1.83;nan;101966.06;5021048;28;20262;-75
2021/03/02 05:59:52;;;;;;;33.30;20.30;;;;;;;1.80;nan;101960.03;5021466;28;20242;-77
2021/03/02 06:02:18;;;;;;;29.80;18.38;;;;;;;1.64;nan;101965.69;5021583;28;20266;-77
2021/03/02 06:04:48;;;;;;;27.27;16.70;;;;;;;1.73;nan;101967.22;5022650;28;20227;-78
2021/03/02 06:07:14;;;;;;;30.05;18.00;;;;;;;1.84;nan;101967.81;5020569;28;20246;-77
2021/03/02 06:09:41;;;;;;;30.85;18.90;;;;;;;1.91;nan;101968.50;5022270;28;20215;-76
2021/03/02 06:12:08;;;;;;;33.95;18.95;;;;;;;1.94;nan;101965.78;5021743;28;20595;-76
2021/03/02 06:14:34;;;;;;;37.30;20.88;;;;;;;1.99;nan;101963.00;5020879;28;20207;-76
2021/03/02 06:17:01;;;;;;;33.30;19.73;;;;;;;1.95;nan;101961.38;5020482;28;20232;-76
2021/03/02 06:19:38;;;;;;;29.67;17.30;;;;;;;1.96;nan;101965.72;5015896;28;20228;-76
2021/03/02 06:22:05;;;;;;;36.55;19.90;;;;;;;2.05;nan;101973.41;5017602;28;20768;-76
2021/03/02 06:24:35;;;;;;;38.70;20.50;;;;;;;2.23;nan;101972.84;5021681;28;20319;-76
2021/03/02 06:27:11;;;;;;;42.47;21.15;;;;;;;2.29;nan;101976.22;5020503;28;20227;-76
2021/03/02 06:29:38;;;;;;;34.85;19.40;;;;;;;2.48;nan;101976.56;5001313;28;20660;-76
2021/03/02 06:32:05;;;;;;;36.50;20.23;;;;;;;2.54;nan;101973.75;5001926;28;20477;-77
2021/03/02 06:34:31;;;;;;;41.55;21.08;;;;;;;2.69;nan;101972.38;5021081;28;20216;-75
2021/03/02 06:36:59;;;;;;;39.42;20.80;;;;;;;2.93;nan;101973.41;5019874;28;20307;-76
2021/03/02 06:39:29;;;;;;;37.27;20.63;;;;;;;3.90;nan;101978.06;5021092;28;20223;-76
2021/03/02 06:42:11;;;;;;;36.23;20.90;;;;;;;5.22;nan;101975.59;5021011;28;20477;-75
2021/03/02 06:44:38;;;;;;;36.97;20.53;;;;;;;6.42;nan;101980.13;5020732;28;20486;-76
2021/03/02 06:47:04;;;;;;;36.13;19.00;;;;;;;7.65;nan;101982.13;5020163;28;20479;-77
2021/03/02 06:49:38;;;;;;;28.50;17.43;;;;;;;9.04;nan;101977.28;5020517;28;20490;-73
2021/03/02 06:52:15;;;;;;;26.30;14.43;;;;;;;10.10;nan;101983.47;5018185;28;20483;-73
2021/03/02 06:54:42;;;;;;;24.20;14.33;;;;;;;11.27;nan;101984.91;5005278;28;20447;-74
2021/03/02 06:57:09;;;;;;;22.80;13.07;;;;;;;11.74;nan;101984.47;5010154;28;20545;-74
2021/03/02 06:59:35;;;;;;;20.30;13.50;;;;;;;11.88;nan;101990.56;5024416;28;20497;-73
2021/03/02 07:02:01;;;;;;;19.33;13.43;;;;;;;10.82;nan;101991.47;5017397;28;20504;-72
2021/03/02 07:04:28;;;;;;;22.30;14.40;;;;;;;10.16;nan;101985.78;5032873;28;20494;-73
2021/03/02 07:06:56;;;;;;;18.50;13.60;;;;;;;10.22;nan;101992.56;5023983;28;20842;-72
2021/03/02 07:09:23;;;;;;;18.73;13.23;;;;;;;11.02;nan;101982.97;5025657;28;20486;-72
2021/03/02 07:11:50;;;;;;;21.47;15.07;;;;;;;12.37;nan;101997.03;5024853;28;20478;-73
2021/03/02 07:14:17;;;;;;;18.00;12.90;;;;;;;14.04;nan;101980.13;5024442;28;20453;-72
2021/03/02 07:16:45;;;;;;;20.90;14.43;;;;;;;15.12;nan;101992.13;5024118;28;20505;-72
2021/03/02 07:19:15;;;;;;;17.43;13.00;;;;;;;16.34;nan;101996.13;5024806;28;20443;-73
2021/03/02 07:21:44;;;;;;;16.97;13.57;;;;;;;17.33;nan;101987.28;5023608;28;20478;-72
2021/03/02 07:24:13;;;;;;;20.80;14.97;;;;;;;17.39;nan;101978.59;5025394;28;20553;-73
2021/03/02 07:26:43;;;;;;;18.40;13.70;;;;;;;14.81;nan;101986.63;5024248;28;20557;-72
2021/03/02 07:29:09;;;;;;;19.70;14.63;;;;;;;12.22;nan;101990.94;5023533;28;20544;-72
2021/03/02 07:31:38;;;;;;;17.57;13.23;;;;;;;11.14;nan;101985.81;5023212;28;20541;-72
2021/03/02 07:34:06;;;;;;;26.83;14.90;;;;;;;12.80;nan;101993.94;5024733;28;20738;-73
2021/03/02 07:36:35;;;;;;;18.53;13.07;;;;;;;15.52;nan;101991.47;5023429;28;20481;-71
2021/03/02 07:39:11;;;;;;;23.07;14.20;;;;;;;17.79;nan;101994.59;5024657;28;20477;-71
2021/03/02 07:41:37;;;;;;;20.43;14.03;;;;;;;18.51;nan;101988.72;5023618;28;20482;-73
2021/03/02 07:44:04;;;;;;;19.07;13.90;;;;;;;19.04;nan;101989.84;5023322;28;20518;-74
2021/03/02 07:46:52;;;;;;;23.97;14.40;;;;;;;19.24;nan;101990.56;5023412;28;20513;-73
2021/03/02 07:49:32;;;;;;;18.97;14.03;;;;;;;19.52;nan;101997.59;5023601;28;20459;-73
2021/03/02 07:52:20;;;;;;;18.27;13.87;;;;;;;19.69;nan;102000.44;5028349;28;20902;-73
2021/03/02 07:54:46;;;;;;;21.33;13.83;;;;;;;19.74;nan;101999.00;5023940;28;20675;-74
2021/03/02 07:57:26;;;;;;;17.40;13.87;;;;;;;20.12;nan;101996.88;5022638;28;20802;-74
2021/03/02 08:00:26;;;;;;;19.00;13.53;;;;;;;20.28;nan;101995.25;5024587;28;20460;-71
2021/03/02 08:03:21;;;;;;;16.93;13.60;;;;;;;20.51;nan;101999.09;4964981;28;20599;-74
2021/03/02 08:05:48;;;;;;;14.53;12.57;;;;;;;21.04;nan;101997.09;4973396;28;20515;-74
2021/03/02 08:08:45;;;;;;;15.73;12.10;;;;;;;21.41;nan;101992.19;4982806;28;20456;-74
2021/03/02 08:11:31;;;;;;;17.50;13.60;;;;;;;21.26;nan;102000.16;4943132;28;20470;-74
2021/03/02 08:13:58;;;;;;;20.10;12.57;;;;;;;20.39;nan;102010.41;4942800;29;20539;-72
2021/03/02 08:16:53;;;;;;;15.37;13.00;;;;;;;20.02;nan;101990.69;4941378;29;20482;-73
2021/03/02 08:19:39;;;;;;;16.80;12.30;;;;;;;19.99;nan;101995.59;4921813;29;20498;-73
2021/03/02 08:22:42;;;;;;;15.37;12.10;;;;;;;20.09;nan;102007.19;4904670;29;20475;-74
2021/03/02 08:25:23;;;;;;;16.97;13.23;;;;;;;20.60;nan;102001.84;4904753;29;20511;-72
2021/03/02 08:27:52;;;;;;;19.10;11.63;;;;;;;21.88;nan;101993.41;4904740;29;20516;-73
2021/03/02 08:30:20;;;;;;;16.93;12.23;;;;;;;22.33;nan;102000.13;4904852;29;20716;-73
2021/03/02 08:32:47;;;;;;;15.53;11.57;;;;;;;22.83;nan;102009.78;4918923;29;20466;-73
2021/03/02 08:35:16;;;;;;;14.90;12.43;;;;;;;20.94;nan;101998.25;4941644;29;20849;-70
2021/03/02 08:37:43;;;;;;;15.20;12.10;;;;;;;20.32;nan;102002.06;4942865;29;21848;-70
2021/03/02 08:40:12;;;;;;;15.10;11.63;;;;;;;19.82;nan;102000.06;4943010;29;20488;-70
2021/03/02 08:42:39;;;;;;;14.23;12.63;;;;;;;18.89;nan;101994.97;4942190;29;20426;-69
2021/03/02 08:45:11;;;;;;;16.57;13.53;;;;;;;20.07;nan;102003.81;4974069;28;20490;-68
2021/03/02 08:47:39;;;;;;;14.63;12.50;;;;;;;19.26;nan;102000.25;5023024;28;20465;-71
2021/03/02 08:50:06;;;;;;;13.40;11.60;;;;;;;19.87;nan;102005.88;5021088;28;20439;-71
2021/03/02 08:52:37;;;;;;;15.20;12.33;;;;;;;20.30;nan;102010.38;5006089;28;20463;-73
2021/03/02 08:55:04;;;;;;;14.80;11.90;;;;;;;20.53;nan;102009.78;5003095;28;20456;-71
2021/03/02 08:57:31;;;;;;;13.63;11.83;;;;;;;20.68;nan;102007.34;5016637;28;20482;-70
2021/03/02 08:59:57;;;;;;;16.40;12.33;;;;;;;20.67;nan;102011.06;5022947;28;20463;-70
2021/03/02 09:02:24;;;;;;;14.00;12.00;;;;;;;19.43;nan;101995.81;5022702;28;20505;-70
2021/03/02 09:04:50;;;;;;;18.43;12.63;;;;;;;18.40;nan;102012.28;5021952;28;20562;-70
2021/03/02 09:07:22;;;;;;;12.83;11.23;;;;;;;18.49;nan;102007.84;5021524;28;20949;-69
2021/03/02 09:09:49;;;;;;;18.80;13.13;;;;;;;18.17;nan;102008.22;5023203;28;20477;-69
2021/03/02 09:12:16;;;;;;;15.20;12.10;;;;;;;19.17;nan;102018.28;5021339;28;20843;-69
2021/03/02 09:14:42;;;;;;;14.17;11.93;;;;;;;18.37;nan;102004.47;5022858;28;20451;-73
2021/03/02 09:17:08;;;;;;;14.00;11.30;;;;;;;18.08;nan;102007.25;5020287;28;20537;-70
2021/03/02 09:19:39;;;;;;;16.03;11.50;;;;;;;16.64;nan;102007.88;5021404;28;20469;-69
2021/03/02 09:22:07;;;;;;;18.17;11.93;;;;;;;18.45;nan;102006.41;5022455;28;20477;-71
2021/03/02 09:24:49;;;;;;;16.53;11.23;;;;;;;19.88;nan;101997.56;5022325;28;20458;-72
2021/03/02 09:27:18;;;;;;;14.70;11.10;;;;;;;19.44;nan;101997.50;4997727;28;20538;-71
2021/03/02 09:29:46;;;;;;;15.70;11.60;;;;;;;18.17;nan;101998.25;5000522;28;21032;-71
2021/03/02 09:32:15;;;;;;;12.13;9.60;;;;;;;17.62;nan;101998.06;4991540;28;20512;-71
2021/03/02 09:34:43;;;;;;;13.60;11.17;;;;;;;18.02;nan;101992.47;4979353;28;20453;-71
2021/03/02 09:37:11;;;;;;;14.70;10.77;;;;;;;18.53;nan;101998.41;4979941;28;20472;-71
2021/03/02 09:39:40;;;;;;;14.50;10.90;;;;;;;19.38;nan;101990.00;4980576;28;20464;-71
2021/03/02 09:42:18;;;;;;;14.03;10.00;;;;;;;18.50;nan;101995.97;4979274;28;20958;-70
2021/03/02 09:44:45;;;;;;;13.30;10.57;;;;;;;19.00;nan;102002.88;4980185;28;20484;-71
2021/03/02 09:47:16;;;;;;;13.53;10.03;;;;;;;19.64;nan;101995.47;4987387;28;21083;-68
2021/03/02 09:49:45;;;;;;;14.37;10.90;;;;;;;18.68;nan;102003.31;4998917;28;20472;-70
2021/03/02 09:52:32;;;;;;;10.93;9.40;;;;;;;18.42;nan;101995.91;4985886;28;20531;-70
2021/03/02 09:55:25;;;;;;;13.80;10.27;;;;;;;19.38;nan;102000.88;4980983;28;20455;-71
2021/03/02 09:58:06;;;;;;;15.50;11.07;;;;;;;20.18;nan;102000.81;4980190;28;20534;-70
2021/03/02 10:00:34;;;;;;;13.20;10.47;;;;;;;19.54;nan;101995.56;4979831;28;20474;-70
2021/03/02 10:03:07;;;;;;;14.80;11.17;;;;;;;19.59;nan;101996.97;4993062;28;20448;-76
2021/03/02 10:05:36;;;;;;;12.60;10.17;;;;;;;20.36;nan;102002.59;5020270;28;20502;-77
2021/03/02 10:08:32;;;;;;;14.73;10.70;;;;;;;20.55;nan;101999.59;5021780;28;20798;-76
2021/03/02 10:11:00;;;;;;;12.37;10.20;;;;;;;20.07;nan;102006.53;5015311;28;20482;-71
2021/03/02 10:13:29;;;;;;;12.67;9.93;;;;;;;20.51;nan;101998.25;5021870;28;20528;-73
2021/03/02 10:16:15;;;;;;;16.07;10.00;;;;;;;20.95;nan;101997.22;5020572;28;20482;-71
2021/03/02 10:18:52;;;;;;;14.00;9.73;;;;;;;20.24;nan;101996.56;5001362;28;20459;-72
2021/03/02 10:21:19;;;;;;;13.63;9.97;;;;;;;20.02;nan;101989.84;5001296;28;20978;-70
2021/03/02 10:23:46;;;;;;;14.47;9.80;;;;;;;20.48;nan;101994.00;5014268;28;20463;-69
2021/03/02 10:26:19;;;;;;;13.27;10.30;;;;;;;20.50;nan;101997.41;5020385;28;20477;-69
2021/03/02 10:28:46;;;;;;;10.20;8.93;;;;;;;20.65;nan;101994.09;5021501;28;20450;-70
2021/03/02 10:31:13;;;;;;;12.60;9.50;;;;;;;20.73;nan;101993.25;5020979;28;20470;-70
2021/03/02 10:33:39;;;;;;;12.63;9.40;;;;;;;19.54;nan;101981.16;5019502;28;21181;-71
2021/03/02 10:36:16;;;;;;;12.13;9.93;;;;;;;18.93;nan;101988.22;5020358;28;20554;-68
2021/03/02 10:38:42;;;;;;;11.47;8.87;;;;;;;18.08;nan;101982.06;5021336;28;20691;-70
2021/03/02 10:41:09;;;;;;;10.23;8.53;;;;;;;19.26;nan;101988.56;5019853;28;20822;-69
2021/03/02 10:43:35;;;;;;;13.70;9.23;;;;;;;20.14;nan;101988.56;5021407;28;20455;-69
2021/03/02 10:46:02;;;;;;;10.30;8.63;;;;;;;19.87;nan;101985.00;5020695;28;20545;-69
2021/03/02 10:48:28;;;;;;;11.20;8.50;;;;;;;20.04;nan;101993.25;5020668;28;20454;-69
2021/03/02 10:50:55;;;;;;;9.93;8.23;;;;;;;20.12;nan;101985.16;5024108;28;20600;-69
2021/03/02 10:53:21;;;;;;;12.97;9.47;;;;;;;19.32;nan;101974.34;5036684;28;20462;-68
2021/03/02 10:55:47;;;;;;;12.83;9.73;;;;;;;18.50;nan;101981.59;5019310;28;20525;-68
2021/03/02 10:58:16;;;;;;;15.70;8.80;;;;;;;18.62;nan;101973.09;5021083;28;20903;-69
2021/03/02 11:00:43;;;;;;;11.90;8.43;;;;;;;19.21;nan;101967.31;5020602;28;20477;-71
2021/03/02 11:03:10;;;;;;;10.00;8.10;;;;;;;19.56;nan;101976.41;5020067;28;20451;-69
2021/03/02 11:05:37;;;;;;;11.20;8.77;;;;;;;19.19;nan;101972.03;5020756;28;20473;-69
2021/03/02 11:08:03;;;;;;;13.00;8.63;;;;;;;18.50;nan;101970.75;5021234;28;20469;-68
2021/03/02 11:10:30;;;;;;;10.83;8.80;;;;;;;18.74;nan;101978.31;5019402;28;20497;-72
2021/03/02 11:12:56;;;;;;;14.40;9.20;;;;;;;19.21;nan;101977.31;5021347;28;20498;-72
2021/03/02 11:15:22;;;;;;;11.43;9.27;;;;;;;18.38;nan;101973.69;5020174;28;20480;-72
2021/03/02 11:17:49;;;;;;;11.13;8.90;;;;;;;18.39;nan;101961.84;5018474;28;20474;-72
2021/03/02 11:20:17;;;;;;;12.40;9.40;;;;;;;18.84;nan;101956.63;5020415;28;20528;-72
2021/03/02 11:22:43;;;;;;;12.13;8.73;;;;;;;18.30;nan;101960.03;5020539;28;20777;-73
2021/03/02 11:25:16;;;;;;;11.47;8.50;;;;;;;19.12;nan;101957.41;5019076;28;20497;-73
2021/03/02 11:27:43;;;;;;;15.70;9.00;;;;;;;19.23;nan;101945.47;5020479;28;20455;-73
2021/03/02 11:30:10;;;;;;;10.80;8.23;;;;;;;18.86;nan;101944.63;5019809;28;20462;-71
2021/03/02 11:32:37;;;;;;;12.30;9.10;;;;;;;18.95;nan;101940.97;5020082;28;20451;-72
2021/03/02 11:35:03;;;;;;;11.30;8.53;;;;;;;19.67;nan;101943.63;5020185;28;20486;-71
2021/03/02 11:37:30;;;;;;;10.33;7.90;;;;;;;18.62;nan;101943.31;5019927;28;20459;-71
2021/03/02 11:39:57;;;;;;;20.07;9.90;;;;;;;18.98;nan;101939.81;5021739;28;20463;-71